Time;durP1;ratioP1;P1;durP2;ratioP2;P2;SDS_P1;SDS_P2;PMS_P1;PMS_P2;Temp;Humidity;BMP_temperature;BMP_pressure;BME280_temperature;BME280_humidity;BME280_pressure;Samples;Min_cycle;Max_cycle;Signal;HPM_P1;HPM_P2
2022/01/07 00:00:39;;;;;;;48.43;21.07;;;2.00;91.80;;;;;;5060343;28;20280;-91
2022/01/07 00:03:05;;;;;;;44.43;17.60;;;2.00;91.80;;;;;;5077599;28;20253;-91
2022/01/07 00:05:31;;;;;;;43.97;17.13;;;2.00;91.90;;;;;;5061097;28;20598;-91
2022/01/07 00:07:57;;;;;;;16.33;10.77;;;2.00;91.80;;;;;;5059434;28;20191;-93
2022/01/07 00:10:23;;;;;;;26.60;13.67;;;2.00;91.80;;;;;;5058971;28;20179;-90
2022/01/07 00:12:49;;;;;;;37.50;17.17;;;2.10;91.70;;;;;;5059184;28;20195;-91
2022/01/07 00:15:16;;;;;;;45.80;19.77;;;2.10;91.50;;;;;;5059124;28;20190;-91
2022/01/07 00:17:42;;;;;;;35.23;18.13;;;2.00;91.60;;;;;;5058950;28;20174;-90
2022/01/07 00:20:10;;;;;;;42.43;22.50;;;2.00;91.70;;;;;;5058533;28;20651;-92
2022/01/07 00:22:41;;;;;;;45.80;23.90;;;2.00;91.60;;;;;;5058756;28;20734;-91
2022/01/07 00:25:08;;;;;;;48.93;22.43;;;2.10;91.60;;;;;;5059068;28;20192;-92
2022/01/07 00:27:34;;;;;;;48.77;25.37;;;2.10;91.50;;;;;;5058823;28;20230;-91
2022/01/07 00:30:00;;;;;;;33.57;17.10;;;2.10;91.50;;;;;;5059606;28;20181;-92
2022/01/07 00:32:26;;;;;;;50.73;21.80;;;2.10;91.40;;;;;;5060640;28;20199;-92
2022/01/07 00:34:51;;;;;;;45.63;20.40;;;2.10;91.30;;;;;;5059834;28;20211;-91
2022/01/07 00:37:17;;;;;;;36.53;17.07;;;2.00;91.40;;;;;;5058847;28;20645;-91
2022/01/07 00:39:45;;;;;;;24.80;10.30;;;2.00;91.50;;;;;;5059002;28;20525;-91
2022/01/07 00:42:11;;;;;;;52.20;23.13;;;2.10;91.30;;;;;;5058437;28;20183;-91
2022/01/07 00:44:37;;;;;;;53.00;27.20;;;2.00;91.20;;;;;;5059238;28;20204;-90
2022/01/07 00:47:03;;;;;;;35.00;17.10;;;2.00;91.20;;;;;;5058239;28;20238;-92
2022/01/07 00:49:28;;;;;;;40.90;22.83;;;2.10;91.10;;;;;;5058253;28;20186;-91
2022/01/07 00:51:54;;;;;;;47.27;24.23;;;2.00;91.10;;;;;;5058698;28;20561;-91
2022/01/07 00:54:20;;;;;;;43.93;23.43;;;2.00;91.10;;;;;;5058865;28;20205;-92
2022/01/07 00:56:46;;;;;;;38.57;19.03;;;2.00;91.20;;;;;;5076374;28;20575;-90
2022/01/07 00:59:12;;;;;;;40.20;22.07;;;2.00;91.20;;;;;;5058668;28;20185;-91
2022/01/07 01:01:38;;;;;;;41.70;21.10;;;2.00;91.20;;;;;;5058138;28;20174;-91
2022/01/07 01:04:03;;;;;;;24.50;14.77;;;2.00;91.20;;;;;;5058557;28;20174;-93
2022/01/07 01:06:30;;;;;;;19.67;10.63;;;2.00;91.00;;;;;;5058940;28;20292;-91
2022/01/07 01:08:55;;;;;;;31.60;16.50;;;2.00;91.00;;;;;;5058586;28;20176;-91
2022/01/07 01:11:21;;;;;;;34.57;16.97;;;2.10;90.70;;;;;;5076094;28;20549;-91
2022/01/07 01:13:47;;;;;;;19.70;11.60;;;2.10;90.60;;;;;;5057944;28;20681;-92
2022/01/07 01:16:13;;;;;;;46.27;19.13;;;2.10;90.50;;;;;;5058045;28;20198;-92
2022/01/07 01:18:38;;;;;;;33.77;17.33;;;2.10;90.70;;;;;;5058468;28;20200;-92
2022/01/07 01:21:04;;;;;;;35.93;16.50;;;2.10;90.60;;;;;;5058985;28;20243;-92
2022/01/07 01:23:30;;;;;;;38.63;13.67;;;2.20;90.30;;;;;;5076517;28;20196;-90
2022/01/07 01:25:55;;;;;;;42.53;18.87;;;2.10;90.40;;;;;;5059544;28;20200;-92
2022/01/07 01:28:21;;;;;;;27.60;16.97;;;2.10;90.40;;;;;;5076288;28;20175;-91
2022/01/07 01:30:47;;;;;;;33.80;17.60;;;2.20;89.90;;;;;;5058299;28;20185;-92
2022/01/07 01:33:12;;;;;;;36.33;17.33;;;2.20;89.80;;;;;;5057770;28;20693;-92
2022/01/07 01:35:41;;;;;;;22.20;12.43;;;2.20;89.90;;;;;;5057311;28;20239;-91
2022/01/07 01:38:07;;;;;;;21.70;14.77;;;2.30;89.30;;;;;;5057673;28;20549;-91
2022/01/07 01:40:34;;;;;;;28.07;13.43;;;2.20;89.40;;;;;;5075757;28;20170;-92
2022/01/07 01:43:01;;;;;;;24.10;12.93;;;2.30;89.50;;;;;;5058296;28;20177;-91
2022/01/07 01:45:27;;;;;;;30.70;17.03;;;2.20;89.50;;;;;;5075801;28;20340;-92
2022/01/07 01:47:54;;;;;;;26.80;12.23;;;2.20;89.60;;;;;;5058021;28;20179;-91
2022/01/07 01:50:20;;;;;;;19.50;11.40;;;2.30;89.40;;;;;;5057740;28;20209;-91
2022/01/07 01:52:50;;;;;;;18.53;8.47;;;2.20;89.10;;;;;;5057987;28;20193;-90
2022/01/07 01:55:18;;;;;;;18.07;11.23;;;2.20;89.10;;;;;;5058132;28;20752;-92
2022/01/07 01:57:44;;;;;;;28.50;13.60;;;2.30;89.20;;;;;;5058583;28;20228;-91
2022/01/07 02:00:10;;;;;;;19.30;12.07;;;2.30;89.00;;;;;;5057965;28;20170;-91
2022/01/07 02:02:36;;;;;;;27.60;13.23;;;2.30;88.60;;;;;;5057522;28;20651;-91
2022/01/07 02:05:03;;;;;;;23.27;12.00;;;2.30;88.60;;;;;;5057549;28;20204;-90
2022/01/07 02:07:29;;;;;;;30.07;11.17;;;2.30;88.80;;;;;;5056979;28;20183;-91
2022/01/07 02:09:55;;;;;;;28.10;12.60;;;2.30;88.80;;;;;;5056512;28;20201;-91
2022/01/07 02:12:21;;;;;;;22.80;11.03;;;2.30;88.70;;;;;;5056989;28;20201;-91
2022/01/07 02:14:56;;;;;;;39.63;16.23;;;2.40;88.20;;;;;;5056540;28;20667;-91
2022/01/07 02:17:22;;;;;;;21.53;11.80;;;2.30;88.50;;;;;;5056613;28;20174;-92
2022/01/07 02:19:49;;;;;;;26.90;12.67;;;2.30;88.50;;;;;;5061145;28;20171;-92
2022/01/07 02:22:17;;;;;;;22.83;10.03;;;2.40;88.30;;;;;;5062228;28;20222;-91
2022/01/07 02:24:44;;;;;;;28.97;13.67;;;2.40;88.30;;;;;;5057618;28;20703;-91
2022/01/07 02:27:12;;;;;;;20.93;12.33;;;2.50;87.90;;;;;;5059085;28;20285;-92
2022/01/07 02:29:39;;;;;;;22.07;10.53;;;2.40;88.00;;;;;;5057694;28;20208;-92
2022/01/07 02:32:05;;;;;;;28.67;13.97;;;2.40;87.90;;;;;;5056245;28;20186;-92
2022/01/07 02:34:31;;;;;;;19.37;10.80;;;2.40;87.70;;;;;;5055871;28;20195;-91
2022/01/07 02:36:56;;;;;;;19.07;10.00;;;2.40;87.90;;;;;;5056607;28;20162;-91
2022/01/07 02:39:22;;;;;;;18.63;9.27;;;2.40;88.00;;;;;;5056725;28;20179;-91
2022/01/07 02:41:48;;;;;;;15.40;9.00;;;2.40;87.80;;;;;;5056732;28;20172;-90
2022/01/07 02:44:13;;;;;;;25.60;11.70;;;2.40;87.60;;;;;;5074229;28;20691;-90
2022/01/07 02:46:40;;;;;;;22.37;9.20;;;2.40;87.60;;;;;;5056304;28;20264;-91
2022/01/07 02:49:10;;;;;;;18.70;9.17;;;2.40;87.70;;;;;;5056474;28;20188;-91
2022/01/07 02:51:36;;;;;;;19.00;9.20;;;2.40;87.40;;;;;;5056200;28;20181;-91
2022/01/07 02:54:02;;;;;;;20.27;9.90;;;2.50;87.10;;;;;;5056145;28;20199;-90
2022/01/07 02:56:28;;;;;;;16.17;9.13;;;2.50;86.80;;;;;;5055962;28;20195;-89
2022/01/07 02:58:54;;;;;;;22.50;8.33;;;2.50;87.00;;;;;;5056230;28;20185;-90
2022/01/07 03:01:19;;;;;;;14.60;7.90;;;2.50;86.80;;;;;;5074021;28;20659;-89
2022/01/07 03:03:45;;;;;;;16.10;7.47;;;2.50;86.90;;;;;;5073636;28;20673;-91
2022/01/07 03:06:11;;;;;;;17.87;9.90;;;2.50;87.00;;;;;;5055820;28;20714;-91
2022/01/07 03:08:36;;;;;;;22.30;11.00;;;2.40;87.30;;;;;;5073564;28;20178;-92
2022/01/07 03:11:02;;;;;;;21.23;11.03;;;2.40;87.30;;;;;;5072972;28;20169;-91
2022/01/07 03:13:28;;;;;;;16.80;9.13;;;2.40;87.10;;;;;;5055872;28;20662;-90
2022/01/07 03:15:53;;;;;;;39.70;10.10;;;2.40;87.10;;;;;;5055489;28;20245;-90
2022/01/07 03:18:19;;;;;;;15.43;6.90;;;2.50;86.80;;;;;;5073573;28;20170;-90
2022/01/07 03:20:45;;;;;;;25.37;7.73;;;2.50;86.70;;;;;;5055928;28;20181;-91
2022/01/07 03:23:12;;;;;;;26.30;9.33;;;2.50;86.50;;;;;;5073617;28;20180;-92
2022/01/07 03:25:40;;;;;;;17.07;9.13;;;2.50;86.60;;;;;;5055667;28;20197;-91
2022/01/07 03:28:08;;;;;;;26.13;6.50;;;2.50;86.00;;;;;;5055852;28;20686;-90
2022/01/07 03:30:33;;;;;;;13.90;6.83;;;2.50;86.10;;;;;;5055775;28;20284;-91
2022/01/07 03:32:59;;;;;;;20.83;10.23;;;2.50;86.40;;;;;;5055878;28;20641;-89
2022/01/07 03:35:25;;;;;;;15.60;8.60;;;2.50;86.40;;;;;;5142233;22;20238;-88
2022/01/07 03:37:51;;;;;;;14.47;8.50;;;2.40;86.60;;;;;;5052418;28;20179;-88
2022/01/07 03:40:19;;;;;;;19.03;9.80;;;2.50;86.50;;;;;;5052146;28;20182;-88
2022/01/07 03:42:45;;;;;;;10.93;6.87;;;2.50;86.50;;;;;;5052592;28;20188;-88
2022/01/07 03:45:12;;;;;;;14.40;7.43;;;2.40;86.80;;;;;;5052847;28;20207;-88
2022/01/07 03:47:38;;;;;;;12.33;7.67;;;2.40;86.70;;;;;;5051949;28;20220;-88
2022/01/07 03:50:09;;;;;;;13.73;6.33;;;2.50;86.40;;;;;;5052096;28;20186;-88
2022/01/07 03:52:36;;;;;;;19.43;8.37;;;2.60;86.00;;;;;;5052100;28;20758;-88
2022/01/07 03:55:04;;;;;;;13.77;8.03;;;2.50;86.50;;;;;;5051755;28;20224;-88
2022/01/07 03:57:30;;;;;;;13.27;6.03;;;2.50;86.60;;;;;;5052742;28;20175;-88
2022/01/07 03:59:55;;;;;;;18.67;7.93;;;2.50;86.60;;;;;;5051654;28;20313;-88
2022/01/07 04:02:21;;;;;;;11.03;5.50;;;2.40;87.20;;;;;;5051606;28;20176;-88
2022/01/07 04:04:47;;;;;;;18.47;7.40;;;2.40;87.20;;;;;;5051667;28;20174;-88
2022/01/07 04:07:12;;;;;;;19.33;8.73;;;2.40;87.50;;;;;;5052502;28;20182;-89
2022/01/07 04:09:38;;;;;;;6.77;5.17;;;2.30;88.40;;;;;;5051470;28;20205;-88
2022/01/07 04:12:04;;;;;;;18.57;8.13;;;2.30;88.60;;;;;;5051370;28;20181;-88
2022/01/07 04:14:30;;;;;;;13.13;8.23;;;2.30;88.70;;;;;;5051293;28;20180;-88
2022/01/07 04:16:55;;;;;;;17.00;8.17;;;2.20;89.00;;;;;;5051347;28;20253;-88
2022/01/07 04:19:22;;;;;;;21.87;6.30;;;2.10;89.60;;;;;;5051343;28;20180;-88
2022/01/07 04:21:49;;;;;;;14.87;6.90;;;2.10;89.80;;;;;;5053205;28;20638;-89
2022/01/07 04:24:16;;;;;;;13.37;6.67;;;2.10;90.00;;;;;;5055284;28;20177;-88
2022/01/07 04:26:41;;;;;;;19.40;8.97;;;2.00;90.20;;;;;;5054758;28;20197;-88
2022/01/07 04:29:07;;;;;;;24.73;8.07;;;1.90;90.50;;;;;;5055036;28;20317;-88
2022/01/07 04:31:33;;;;;;;11.83;6.17;;;1.90;90.80;;;;;;5054796;28;20210;-89
2022/01/07 04:33:58;;;;;;;12.07;5.70;;;1.90;90.90;;;;;;5056063;28;20532;-89
2022/01/07 04:36:24;;;;;;;12.53;6.80;;;1.80;91.30;;;;;;5054593;28;20210;-89
2022/01/07 04:38:50;;;;;;;16.53;6.57;;;1.80;91.50;;;;;;5055000;28;20175;-88
2022/01/07 04:41:15;;;;;;;20.53;9.23;;;1.80;91.80;;;;;;5054519;28;20180;-88
2022/01/07 04:43:41;;;;;;;23.70;11.77;;;1.80;91.80;;;;;;5054549;28;20181;-88
2022/01/07 04:46:06;;;;;;;10.47;6.83;;;1.80;91.80;;;;;;5054330;28;20197;-89
2022/01/07 04:48:32;;;;;;;18.40;11.53;;;1.80;91.90;;;;;;5054438;28;20676;-88
2022/01/07 04:50:58;;;;;;;23.93;11.70;;;1.70;92.00;;;;;;5054314;28;20177;-89
2022/01/07 04:53:24;;;;;;;16.80;9.57;;;1.70;92.10;;;;;;5054323;28;20667;-89
2022/01/07 04:55:49;;;;;;;15.03;7.80;;;1.70;92.10;;;;;;5054237;28;20286;-88
2022/01/07 04:58:15;;;;;;;19.13;9.10;;;1.70;92.10;;;;;;5055561;28;20174;-88
2022/01/07 05:00:43;;;;;;;32.77;14.33;;;1.70;92.10;;;;;;5054677;28;20238;-88
2022/01/07 05:03:09;;;;;;;13.70;7.23;;;1.70;92.30;;;;;;5054152;28;20188;-89
2022/01/07 05:05:35;;;;;;;18.90;10.73;;;1.70;92.40;;;;;;5054143;28;20206;-88
2022/01/07 05:08:02;;;;;;;14.97;9.73;;;1.70;92.40;;;;;;5054304;28;20185;-89
2022/01/07 05:10:28;;;;;;;14.83;8.53;;;1.70;92.30;;;;;;5054009;28;20213;-88
2022/01/07 05:12:54;;;;;;;13.40;7.27;;;1.60;92.50;;;;;;5053876;28;20700;-88
2022/01/07 05:15:20;;;;;;;19.13;10.13;;;1.60;92.70;;;;;;5053780;28;20200;-88
2022/01/07 05:17:46;;;;;;;13.80;8.43;;;1.60;92.70;;;;;;5054875;28;20210;-89
2022/01/07 05:20:13;;;;;;;17.37;10.53;;;1.60;92.70;;;;;;5054077;28;20185;-88
2022/01/07 05:22:40;;;;;;;18.17;9.83;;;1.60;92.80;;;;;;5053761;28;20185;-89
2022/01/07 05:25:07;;;;;;;14.03;8.80;;;1.50;92.90;;;;;;5054017;28;20206;-89
2022/01/07 05:27:32;;;;;;;13.43;8.10;;;1.50;92.90;;;;;;5053698;28;20220;-89
2022/01/07 05:29:58;;;;;;;13.67;9.23;;;1.50;93.00;;;;;;5054962;28;20284;-89
2022/01/07 05:32:24;;;;;;;16.40;7.17;;;1.40;93.20;;;;;;5053464;28;20209;-89
2022/01/07 05:34:50;;;;;;;20.17;11.57;;;1.40;93.30;;;;;;5053275;28;20176;-89
2022/01/07 05:37:15;;;;;;;16.00;10.53;;;1.40;93.30;;;;;;5053451;28;20205;-88
2022/01/07 05:39:41;;;;;;;14.90;9.07;;;1.40;93.30;;;;;;5053433;28;20187;-88
2022/01/07 05:42:07;;;;;;;19.07;8.03;;;1.40;93.30;;;;;;5053439;28;20241;-88
2022/01/07 05:44:33;;;;;;;17.70;12.03;;;1.40;93.40;;;;;;5053441;28;20275;-88
2022/01/07 05:46:58;;;;;;;16.03;10.13;;;1.40;93.40;;;;;;5053172;28;20198;-88
2022/01/07 05:49:24;;;;;;;14.43;10.87;;;1.40;93.50;;;;;;5053148;28;20181;-88
2022/01/07 05:51:50;;;;;;;25.67;16.67;;;1.40;93.50;;;;;;5053173;28;20184;-89
2022/01/07 05:54:15;;;;;;;12.57;6.67;;;1.50;93.40;;;;;;5053118;28;20223;-89
2022/01/07 05:56:41;;;;;;;12.23;7.90;;;1.50;93.40;;;;;;5053064;28;20202;-88
2022/01/07 05:59:07;;;;;;;11.53;7.20;;;1.50;93.40;;;;;;5053091;28;20172;-88
2022/01/07 06:01:32;;;;;;;18.07;9.33;;;1.50;93.40;;;;;;5053113;28;20543;-89
2022/01/07 06:03:58;;;;;;;24.37;14.47;;;1.50;93.40;;;;;;5053026;28;20721;-88
2022/01/07 06:06:24;;;;;;;15.70;10.70;;;1.40;93.40;;;;;;5054379;28;20254;-88
2022/01/07 06:08:49;;;;;;;13.00;8.90;;;1.40;93.40;;;;;;5053414;28;20632;-88
2022/01/07 06:11:15;;;;;;;16.13;10.37;;;1.40;93.50;;;;;;5053077;28;20182;-88
2022/01/07 06:13:42;;;;;;;22.10;10.20;;;1.50;93.60;;;;;;5053557;28;20202;-88
2022/01/07 06:16:07;;;;;;;19.47;12.63;;;1.40;93.50;;;;;;5053206;28;20193;-88
2022/01/07 06:18:33;;;;;;;20.97;8.40;;;1.50;93.50;;;;;;5052763;28;20532;-89
2022/01/07 06:20:59;;;;;;;14.30;9.63;;;1.50;93.50;;;;;;5052786;28;20262;-88
2022/01/07 06:23:24;;;;;;;16.43;10.37;;;1.50;93.50;;;;;;5053874;28;20172;-88
2022/01/07 06:25:50;;;;;;;18.57;10.73;;;1.50;93.50;;;;;;5052520;28;20206;-88
2022/01/07 06:28:19;;;;;;;18.60;7.33;;;1.40;93.70;;;;;;5053828;28;20255;-88
2022/01/07 06:30:45;;;;;;;24.47;15.53;;;1.50;93.70;;;;;;5053617;28;20176;-88
2022/01/07 06:33:11;;;;;;;15.17;9.97;;;1.50;93.70;;;;;;5052745;28;20269;-88
2022/01/07 06:35:37;;;;;;;15.77;11.13;;;1.50;93.80;;;;;;5052282;28;20214;-87
2022/01/07 06:38:03;;;;;;;18.37;11.40;;;1.50;93.80;;;;;;5052336;28;20209;-88
2022/01/07 06:40:29;;;;;;;17.47;11.53;;;1.50;93.80;;;;;;5052727;28;20269;-88
2022/01/07 06:42:54;;;;;;;15.37;9.03;;;1.50;93.80;;;;;;5053802;28;20263;-88
2022/01/07 06:45:20;;;;;;;14.90;10.77;;;1.50;93.70;;;;;;5051266;28;20205;-87
2022/01/07 06:47:46;;;;;;;14.83;10.63;;;1.50;93.70;;;;;;5052263;28;20180;-87
2022/01/07 06:50:12;;;;;;;17.20;10.13;;;1.50;93.70;;;;;;5052256;28;20181;-88
2022/01/07 06:52:39;;;;;;;19.13;13.83;;;1.60;93.80;;;;;;5052922;28;20612;-88
2022/01/07 06:55:05;;;;;;;16.90;8.23;;;1.60;93.70;;;;;;5052587;28;20244;-88
2022/01/07 06:57:30;;;;;;;13.80;9.63;;;1.60;93.50;;;;;;5052434;28;20182;-87
2022/01/07 06:59:56;;;;;;;12.17;8.60;;;1.70;93.40;;;;;;5052149;28;20661;-88
2022/01/07 07:02:22;;;;;;;16.43;8.53;;;1.70;93.40;;;;;;5052082;28;20187;-88
2022/01/07 07:04:47;;;;;;;16.33;9.30;;;1.70;93.30;;;;;;5052305;28;20190;-88
2022/01/07 07:07:14;;;;;;;13.27;9.47;;;1.80;93.30;;;;;;5052478;28;20531;-88
2022/01/07 07:09:39;;;;;;;13.40;9.13;;;1.80;93.10;;;;;;5053613;28;20252;-89
2022/01/07 07:12:05;;;;;;;16.67;10.50;;;1.80;93.00;;;;;;5052036;28;20667;-88
2022/01/07 07:14:31;;;;;;;21.17;13.10;;;1.80;92.90;;;;;;5052172;28;20185;-88
2022/01/07 07:16:57;;;;;;;13.43;7.20;;;1.80;93.00;;;;;;5051785;28;20198;-88
2022/01/07 07:19:23;;;;;;;20.57;14.37;;;1.80;93.00;;;;;;5051940;28;20220;-88
2022/01/07 07:21:49;;;;;;;14.13;9.17;;;1.80;92.90;;;;;;5053406;28;20222;-88
2022/01/07 07:24:16;;;;;;;17.77;10.77;;;1.80;92.90;;;;;;5051783;28;20267;-88
2022/01/07 07:26:41;;;;;;;9.40;7.63;;;1.90;93.00;;;;;;5052133;28;20209;-88
2022/01/07 07:29:07;;;;;;;17.20;12.00;;;1.90;93.00;;;;;;5051862;28;20194;-88
2022/01/07 07:31:37;;;;;;;11.00;8.67;;;1.90;93.00;;;;;;5051768;28;20601;-88
2022/01/07 07:34:19;;;;;;;25.13;13.93;;;1.90;92.90;;;;;;5051716;28;20224;-89
2022/01/07 07:36:45;;;;;;;19.17;8.90;;;1.90;93.00;;;;;;5053184;28;20199;-88
2022/01/07 07:39:13;;;;;;;18.87;10.73;;;1.90;93.10;;;;;;5051619;28;20193;-89
2022/01/07 07:41:41;;;;;;;14.60;8.30;;;1.90;93.10;;;;;;5052955;28;20205;-89
2022/01/07 07:44:07;;;;;;;15.30;9.97;;;1.90;93.00;;;;;;5051966;28;20183;-88
2022/01/07 07:46:35;;;;;;;13.40;8.63;;;1.90;93.10;;;;;;5051635;28;20287;-88
2022/01/07 07:49:04;;;;;;;16.93;11.73;;;1.90;93.20;;;;;;5051915;28;20240;-88
2022/01/07 07:51:30;;;;;;;13.13;8.80;;;1.90;93.10;;;;;;5051605;28;20188;-89
2022/01/07 07:53:56;;;;;;;11.77;9.27;;;2.00;93.20;;;;;;5051866;28;20736;-88
2022/01/07 07:56:22;;;;;;;17.83;9.93;;;2.00;93.10;;;;;;5051602;28;20196;-88
2022/01/07 07:58:48;;;;;;;28.30;14.07;;;2.00;93.10;;;;;;5055890;28;20176;-88
2022/01/07 08:01:14;;;;;;;14.43;9.80;;;2.00;93.30;;;;;;5055429;28;20655;-88
2022/01/07 08:03:40;;;;;;;20.23;13.20;;;2.00;93.30;;;;;;5055309;28;20273;-88
2022/01/07 08:06:06;;;;;;;12.20;9.43;;;2.00;93.40;;;;;;5056420;28;20241;-88
2022/01/07 08:08:32;;;;;;;18.70;11.90;;;2.00;93.50;;;;;;5055294;28;20266;-89
2022/01/07 08:11:01;;;;;;;15.50;13.00;;;2.00;93.50;;;;;;5055571;28;20187;-89
2022/01/07 08:13:29;;;;;;;20.50;11.60;;;2.00;93.60;;;;;;5055220;28;20234;-89
2022/01/07 08:16:01;;;;;;;15.90;12.30;;;2.00;93.60;;;;;;5055497;28;20200;-89
2022/01/07 08:18:31;;;;;;;20.90;13.87;;;1.90;93.60;;;;;;5055916;28;20176;-89
2022/01/07 08:21:01;;;;;;;12.47;8.97;;;1.90;93.60;;;;;;5055300;28;20195;-89
2022/01/07 08:23:27;;;;;;;13.70;10.03;;;1.80;93.60;;;;;;5055519;28;20182;-88
2022/01/07 08:25:52;;;;;;;13.23;9.57;;;1.80;93.70;;;;;;5054913;28;20787;-88
2022/01/07 08:28:19;;;;;;;16.87;10.43;;;1.80;93.80;;;;;;5055733;28;20180;-88
2022/01/07 08:36:15;;;;;;;17.53;11.60;;;1.60;94.00;;;;;;5056070;28;20624;-88
2022/01/07 08:38:40;;;;;;;12.33;9.13;;;1.70;94.00;;;;;;5055790;28;20167;-88
2022/01/07 08:41:07;;;;;;;17.77;12.37;;;1.70;94.10;;;;;;5055856;28;20168;-89
2022/01/07 08:43:32;;;;;;;14.53;8.27;;;1.70;94.10;;;;;;5054683;28;20650;-88
2022/01/07 08:45:59;;;;;;;18.53;12.90;;;1.70;94.10;;;;;;5054931;28;20194;-88
2022/01/07 08:48:26;;;;;;;23.63;11.63;;;1.70;94.10;;;;;;5055749;28;20646;-88
2022/01/07 08:50:52;;;;;;;15.67;10.50;;;1.80;94.10;;;;;;5054460;28;20175;-88
2022/01/07 08:53:17;;;;;;;12.17;10.90;;;1.70;94.10;;;;;;5054351;28;20205;-88
2022/01/07 08:55:43;;;;;;;13.90;9.83;;;1.60;94.10;;;;;;5055490;28;20247;-88
2022/01/07 08:58:08;;;;;;;14.80;11.77;;;1.60;94.10;;;;;;5054149;28;20222;-88
2022/01/07 09:00:34;;;;;;;20.17;11.93;;;1.60;94.10;;;;;;5055655;28;20300;-88
2022/01/07 09:03:00;;;;;;;20.90;11.90;;;1.50;94.20;;;;;;5054128;28;20646;-89
2022/01/07 09:05:26;;;;;;;18.93;14.33;;;1.50;94.30;;;;;;5054567;28;20203;-88
2022/01/07 09:07:52;;;;;;;12.20;9.13;;;1.50;94.30;;;;;;5053644;28;20264;-88
2022/01/07 09:10:18;;;;;;;18.47;14.70;;;1.40;94.30;;;;;;5053364;28;20211;-88
2022/01/07 09:12:44;;;;;;;17.03;10.83;;;1.50;94.40;;;;;;5055196;28;20195;-88
2022/01/07 09:15:10;;;;;;;12.97;10.37;;;1.50;94.40;;;;;;5053933;28;20205;-88
2022/01/07 09:17:36;;;;;;;20.77;13.87;;;1.50;94.50;;;;;;5053964;28;20193;-88
2022/01/07 09:20:03;;;;;;;16.50;13.57;;;1.50;94.50;;;;;;5053889;28;20218;-88
2022/01/07 09:22:29;;;;;;;18.40;14.33;;;1.50;94.50;;;;;;5053867;28;20187;-88
2022/01/07 09:24:54;;;;;;;19.10;15.87;;;1.60;94.50;;;;;;5054305;28;20178;-88
2022/01/07 09:27:20;;;;;;;12.80;11.07;;;1.60;94.40;;;;;;5053750;28;20218;-88
2022/01/07 09:29:46;;;;;;;13.17;10.33;;;1.60;94.40;;;;;;5053732;28;20232;-88
2022/01/07 09:32:12;;;;;;;14.93;10.67;;;1.70;94.40;;;;;;5054956;28;20546;-88
2022/01/07 09:34:38;;;;;;;12.53;10.03;;;1.70;94.40;;;;;;5053733;28;20177;-88
2022/01/07 09:37:05;;;;;;;19.60;13.87;;;1.70;94.30;;;;;;5054818;28;20271;-88
2022/01/07 09:39:32;;;;;;;14.20;12.10;;;1.70;94.40;;;;;;5053576;28;20660;-88
2022/01/07 09:42:00;;;;;;;19.50;15.73;;;1.70;94.40;;;;;;5053729;28;20300;-89
2022/01/07 09:44:25;;;;;;;19.77;15.70;;;1.70;94.40;;;;;;5053443;28;20275;-88
2022/01/07 09:46:51;;;;;;;18.17;13.53;;;1.80;94.30;;;;;;5053442;28;20228;-88
2022/01/07 09:49:17;;;;;;;19.77;14.40;;;1.80;94.30;;;;;;5054221;28;20180;-88
2022/01/07 09:51:43;;;;;;;16.53;14.07;;;1.90;94.30;;;;;;5054047;28;20207;-88
2022/01/07 09:54:09;;;;;;;23.20;18.07;;;1.90;94.30;;;;;;5053645;28;20209;-88
2022/01/07 09:56:37;;;;;;;20.13;15.60;;;1.90;94.30;;;;;;5053511;28;20279;-88
2022/01/07 09:59:05;;;;;;;18.70;13.63;;;1.90;94.20;;;;;;5053109;28;20181;-88
2022/01/07 10:01:51;;;;;;;20.97;15.37;;;1.90;94.20;;;;;;5054565;28;20579;-88
2022/01/07 10:04:29;;;;;;;16.07;12.00;;;1.90;94.20;;;;;;5052883;28;20232;-88
2022/01/07 10:07:20;;;;;;;19.77;14.37;;;2.00;94.20;;;;;;5053215;28;20195;-88
2022/01/07 10:10:08;;;;;;;22.73;15.43;;;2.10;94.20;;;;;;5052791;28;20178;-88
2022/01/07 10:12:56;;;;;;;20.17;12.60;;;2.10;94.10;;;;;;5052906;28;20203;-88
2022/01/07 10:15:31;;;;;;;24.47;19.83;;;2.10;94.10;;;;;;5052719;28;20192;-88
2022/01/07 10:18:06;;;;;;;22.03;17.17;;;2.10;94.10;;;;;;5052716;28;20263;-88
2022/01/07 10:20:41;;;;;;;21.77;15.53;;;2.20;94.10;;;;;;5052609;28;20171;-88
2022/01/07 10:23:13;;;;;;;18.77;12.47;;;2.20;94.00;;;;;;5052680;28;20175;-88
2022/01/07 10:25:41;;;;;;;23.53;16.63;;;2.20;94.10;;;;;;5053944;28;20213;-88
2022/01/07 10:28:10;;;;;;;21.73;15.30;;;2.20;94.20;;;;;;5052642;28;20173;-88
2022/01/07 10:30:37;;;;;;;23.93;15.30;;;2.30;94.20;;;;;;5052511;28;20540;-87
2022/01/07 10:33:24;;;;;;;22.57;17.00;;;2.30;94.20;;;;;;5052297;28;20242;-88
2022/01/07 10:36:14;;;;;;;18.53;12.03;;;2.30;94.20;;;;;;5053514;28;20220;-88
2022/01/07 10:39:06;;;;;;;29.90;20.90;;;2.30;94.10;;;;;;5046014;28;20191;-88
2022/01/07 10:41:32;;;;;;;22.07;16.00;;;2.30;94.10;;;;;;5052763;28;20170;-88
2022/01/07 10:44:02;;;;;;;32.33;23.67;;;2.30;94.10;;;;;;5052459;28;20190;-88
2022/01/07 10:46:31;;;;;;;21.83;16.83;;;2.40;94.10;;;;;;5052337;28;20196;-88
2022/01/07 10:48:59;;;;;;;32.90;25.67;;;2.40;94.10;;;;;;5053755;28;20250;-88
2022/01/07 10:51:30;;;;;;;19.83;13.90;;;2.40;94.10;;;;;;5053363;28;20615;-88
2022/01/07 10:54:01;;;;;;;21.33;13.70;;;2.50;94.20;;;;;;5052139;28;20197;-88
2022/01/07 10:56:44;;;;;;;33.87;24.50;;;2.50;94.10;;;;;;5052169;28;20199;-89
2022/01/07 10:59:12;;;;;;;32.97;25.23;;;2.50;94.00;;;;;;5052159;28;20578;-89
2022/01/07 11:01:50;;;;;;;29.90;20.07;;;2.50;94.00;;;;;;5052203;28;20178;-89
2022/01/07 11:04:21;;;;;;;35.73;25.93;;;2.60;94.10;;;;;;5052100;28;20267;-89
2022/01/07 11:06:48;;;;;;;21.87;15.67;;;2.60;94.10;;;;;;5052041;28;20202;-89
2022/01/07 11:09:16;;;;;;;38.47;28.27;;;2.60;94.20;;;;;;5052170;28;20651;-89
2022/01/07 11:12:01;;;;;;;29.77;22.53;;;2.60;94.20;;;;;;5052095;28;20237;-88
2022/01/07 11:14:29;;;;;;;35.27;27.40;;;2.70;94.10;;;;;;5052861;28;20198;-88
2022/01/07 11:16:58;;;;;;;33.53;24.97;;;2.70;94.10;;;;;;5051877;28;20192;-89
2022/01/07 11:19:28;;;;;;;32.87;26.53;;;2.70;94.10;;;;;;5052758;28;20174;-89
2022/01/07 11:21:55;;;;;;;29.70;20.93;;;2.80;94.20;;;;;;5051774;28;20175;-89
2022/01/07 11:24:39;;;;;;;23.30;16.37;;;2.80;94.20;;;;;;5051864;28;20190;-88
2022/01/07 11:27:14;;;;;;;26.37;17.67;;;2.80;94.10;;;;;;5051912;28;20231;-89
2022/01/07 11:29:52;;;;;;;34.63;23.43;;;2.80;94.00;;;;;;5051882;28;20181;-88
2022/01/07 11:32:46;;;;;;;19.80;15.00;;;2.80;94.00;;;;;;5054340;28;20178;-89
2022/01/07 11:35:40;;;;;;;25.73;18.43;;;2.90;94.00;;;;;;5055790;28;20677;-88
2022/01/07 11:38:14;;;;;;;33.40;24.33;;;3.00;93.90;;;;;;5048335;28;20644;-88
2022/01/07 11:40:39;;;;;;;23.60;14.23;;;3.00;93.90;;;;;;5057290;28;20607;-88
2022/01/07 11:43:31;;;;;;;31.20;22.77;;;3.10;93.80;;;;;;5055799;28;20182;-88
2022/01/07 11:45:58;;;;;;;43.50;29.40;;;3.10;93.80;;;;;;5055807;28;20230;-89
2022/01/07 11:48:27;;;;;;;26.03;17.57;;;3.20;93.90;;;;;;5056372;28;20288;-88
2022/01/07 11:50:56;;;;;;;26.07;18.40;;;3.20;93.80;;;;;;5055546;28;20230;-89
2022/01/07 11:53:23;;;;;;;38.30;23.57;;;3.20;93.80;;;;;;5056943;28;20202;-89
2022/01/07 11:55:52;;;;;;;32.73;23.53;;;3.30;93.70;;;;;;5055492;28;20192;-89
2022/01/07 11:58:18;;;;;;;33.73;22.83;;;3.30;93.70;;;;;;5055506;28;20184;-89
2022/01/07 12:00:50;;;;;;;28.40;20.90;;;3.40;93.70;;;;;;5056703;28;20175;-88
2022/01/07 12:03:40;;;;;;;38.80;24.97;;;3.50;93.50;;;;;;5055373;28;20172;-88
2022/01/07 12:06:23;;;;;;;22.23;15.60;;;3.50;93.50;;;;;;5055312;28;20690;-88
2022/01/07 12:09:10;;;;;;;32.97;24.30;;;3.50;93.40;;;;;;5055272;28;20190;-88
2022/01/07 12:11:58;;;;;;;29.13;20.47;;;3.60;93.10;;;;;;5055180;28;20174;-88
2022/01/07 12:14:32;;;;;;;18.10;12.97;;;3.50;93.20;;;;;;5055150;28;20222;-88
2022/01/07 12:17:00;;;;;;;32.50;21.17;;;3.60;93.20;;;;;;5055075;28;20273;-87
2022/01/07 12:19:26;;;;;;;26.47;18.03;;;3.60;93.00;;;;;;5055038;28;20271;-88
2022/01/07 12:21:52;;;;;;;30.70;20.47;;;3.60;93.00;;;;;;5054962;28;20206;-88
2022/01/07 12:24:22;;;;;;;17.93;13.43;;;3.60;93.00;;;;;;5056498;28;20167;-88
2022/01/07 12:27:03;;;;;;;19.63;13.40;;;3.60;92.90;;;;;;5056036;28;20195;-88
2022/01/07 12:29:35;;;;;;;26.87;16.80;;;3.70;93.00;;;;;;5054813;28;20233;-88
2022/01/07 12:32:02;;;;;;;27.00;21.13;;;3.70;92.90;;;;;;5054706;28;20645;-88
2022/01/07 12:34:31;;;;;;;25.60;15.57;;;3.70;92.80;;;;;;5054647;28;20639;-88
2022/01/07 12:36:58;;;;;;;36.27;25.80;;;3.70;92.70;;;;;;5055056;28;20597;-88
2022/01/07 12:39:30;;;;;;;39.07;24.90;;;3.70;92.70;;;;;;5054702;28;20202;-89
2022/01/07 12:41:56;;;;;;;35.53;21.60;;;3.70;92.80;;;;;;5054926;28;20223;-88
2022/01/07 12:44:23;;;;;;;31.97;23.97;;;3.70;92.70;;;;;;5054480;28;20179;-88
2022/01/07 12:46:55;;;;;;;26.20;16.20;;;3.80;92.50;;;;;;5054499;28;20227;-88
2022/01/07 12:49:32;;;;;;;38.70;23.23;;;3.80;92.60;;;;;;5054561;28;20184;-88